sensor_id;sensor_type;location;lat;lon;timestamp;P1;durP1;ratioP1;P2;durP2;ratioP2
27145;SDS011;17980;51.744;7.190;2022-07-22T00:00:51;2.07;;;1.20;;
27145;SDS011;17980;51.744;7.190;2022-07-22T00:03:19;2.30;;;1.40;;
27145;SDS011;17980;51.744;7.190;2022-07-22T00:05:49;2.90;;;1.13;;
27145;SDS011;17980;51.744;7.190;2022-07-22T00:08:43;3.03;;;1.50;;
27145;SDS011;17980;51.744;7.190;2022-07-22T00:16:22;2.00;;;1.30;;
27145;SDS011;17980;51.744;7.190;2022-07-22T00:18:50;2.87;;;1.13;;
27145;SDS011;17980;51.744;7.190;2022-07-22T00:21:18;5.50;;;1.33;;
27145;SDS011;17980;51.744;7.190;2022-07-22T00:23:46;5.73;;;1.17;;
27145;SDS011;17980;51.744;7.190;2022-07-22T00:26:34;2.40;;;1.10;;
27145;SDS011;17980;51.744;7.190;2022-07-22T00:29:02;2.07;;;1.17;;
27145;SDS011;17980;51.744;7.190;2022-07-22T00:31:30;3.93;;;1.10;;
27145;SDS011;17980;51.744;7.190;2022-07-22T00:33:59;3.10;;;1.00;;
27145;SDS011;17980;51.744;7.190;2022-07-22T00:36:28;4.20;;;1.13;;
27145;SDS011;17980;51.744;7.190;2022-07-22T00:38:56;2.03;;;1.10;;
27145;SDS011;17980;51.744;7.190;2022-07-22T00:41:24;1.50;;;1.10;;
27145;SDS011;17980;51.744;7.190;2022-07-22T00:43:53;1.37;;;1.07;;
27145;SDS011;17980;51.744;7.190;2022-07-22T00:48:59;4.97;;;1.30;;
27145;SDS011;17980;51.744;7.190;2022-07-22T00:51:29;3.00;;;1.37;;
27145;SDS011;17980;51.744;7.190;2022-07-22T00:53:58;3.17;;;1.37;;
27145;SDS011;17980;51.744;7.190;2022-07-22T00:56:27;4.20;;;1.80;;
27145;SDS011;17980;51.744;7.190;2022-07-22T00:58:57;5.00;;;1.73;;
27145;SDS011;17980;51.744;7.190;2022-07-22T01:04:03;4.40;;;1.60;;
27145;SDS011;17980;51.744;7.190;2022-07-22T01:06:32;3.77;;;2.10;;
27145;SDS011;17980;51.744;7.190;2022-07-22T01:09:01;2.30;;;1.40;;
27145;SDS011;17980;51.744;7.190;2022-07-22T01:11:29;4.80;;;1.60;;
27145;SDS011;17980;51.744;7.190;2022-07-22T01:16:34;2.77;;;1.70;;
27145;SDS011;17980;51.744;7.190;2022-07-22T01:19:03;3.00;;;1.90;;
27145;SDS011;17980;51.744;7.190;2022-07-22T01:21:32;4.17;;;1.70;;
27145;SDS011;17980;51.744;7.190;2022-07-22T01:24:02;4.73;;;1.60;;
27145;SDS011;17980;51.744;7.190;2022-07-22T01:26:31;6.60;;;1.80;;
27145;SDS011;17980;51.744;7.190;2022-07-22T01:28:59;3.40;;;1.77;;
27145;SDS011;17980;51.744;7.190;2022-07-22T01:31:27;5.57;;;2.07;;
27145;SDS011;17980;51.744;7.190;2022-07-22T01:33:55;2.20;;;2.00;;
27145;SDS011;17980;51.744;7.190;2022-07-22T01:36:44;6.83;;;2.40;;
27145;SDS011;17980;51.744;7.190;2022-07-22T01:39:12;6.47;;;2.23;;
27145;SDS011;17980;51.744;7.190;2022-07-22T01:41:40;4.40;;;2.30;;
27145;SDS011;17980;51.744;7.190;2022-07-22T03:01:30;7.80;;;1.90;;
27145;SDS011;17980;51.744;7.190;2022-07-22T03:03:58;7.73;;;1.70;;
27145;SDS011;17980;51.744;7.190;2022-07-22T03:06:40;8.03;;;1.73;;
27145;SDS011;17980;51.744;7.190;2022-07-22T03:09:07;5.63;;;2.00;;
27145;SDS011;17980;51.744;7.190;2022-07-22T03:11:35;5.83;;;1.53;;
27145;SDS011;17980;51.744;7.190;2022-07-22T03:14:02;4.33;;;2.50;;
27145;SDS011;17980;51.744;7.190;2022-07-22T03:29:49;4.97;;;1.37;;
27145;SDS011;17980;51.744;7.190;2022-07-22T03:32:16;6.90;;;1.77;;
27145;SDS011;17980;51.744;7.190;2022-07-22T03:34:44;6.63;;;1.93;;
27145;SDS011;17980;51.744;7.190;2022-07-22T03:37:11;4.70;;;2.00;;
27145;SDS011;17980;51.744;7.190;2022-07-22T03:39:51;5.30;;;2.10;;
27145;SDS011;17980;51.744;7.190;2022-07-22T03:42:18;4.37;;;2.20;;
27145;SDS011;17980;51.744;7.190;2022-07-22T03:44:45;9.87;;;2.10;;
27145;SDS011;17980;51.744;7.190;2022-07-22T03:47:12;6.10;;;2.17;;
27145;SDS011;17980;51.744;7.190;2022-07-22T03:49:45;5.27;;;1.60;;
27145;SDS011;17980;51.744;7.190;2022-07-22T03:52:12;6.53;;;1.77;;
27145;SDS011;17980;51.744;7.190;2022-07-22T03:54:39;6.97;;;2.27;;
27145;SDS011;17980;51.744;7.190;2022-07-22T03:57:07;7.83;;;2.87;;
27145;SDS011;17980;51.744;7.190;2022-07-22T03:59:34;5.17;;;2.13;;
27145;SDS011;17980;51.744;7.190;2022-07-22T04:02:02;6.23;;;1.97;;
27145;SDS011;17980;51.744;7.190;2022-07-22T04:04:29;6.80;;;2.33;;
27145;SDS011;17980;51.744;7.190;2022-07-22T04:06:57;9.40;;;2.30;;
27145;SDS011;17980;51.744;7.190;2022-07-22T04:09:36;4.73;;;1.83;;
27145;SDS011;17980;51.744;7.190;2022-07-22T04:12:04;9.67;;;2.50;;
27145;SDS011;17980;51.744;7.190;2022-07-22T04:14:31;4.50;;;1.93;;
27145;SDS011;17980;51.744;7.190;2022-07-22T04:16:59;9.77;;;2.37;;
27145;SDS011;17980;51.744;7.190;2022-07-22T04:19:26;6.20;;;2.00;;
27145;SDS011;17980;51.744;7.190;2022-07-22T04:21:53;7.47;;;2.23;;
27145;SDS011;17980;51.744;7.190;2022-07-22T04:24:20;7.27;;;2.60;;
27145;SDS011;17980;51.744;7.190;2022-07-22T04:26:47;4.33;;;2.13;;
27145;SDS011;17980;51.744;7.190;2022-07-22T04:29:14;4.77;;;1.80;;
27145;SDS011;17980;51.744;7.190;2022-07-22T04:31:42;7.63;;;2.00;;
27145;SDS011;17980;51.744;7.190;2022-07-22T04:34:09;7.00;;;2.07;;
27145;SDS011;17980;51.744;7.190;2022-07-22T04:36:51;4.77;;;1.77;;
27145;SDS011;17980;51.744;7.190;2022-07-22T04:39:19;7.37;;;1.83;;
27145;SDS011;17980;51.744;7.190;2022-07-22T04:41:46;4.20;;;1.70;;
27145;SDS011;17980;51.744;7.190;2022-07-22T04:44:13;8.77;;;2.17;;
27145;SDS011;17980;51.744;7.190;2022-07-22T04:46:40;6.97;;;1.73;;
27145;SDS011;17980;51.744;7.190;2022-07-22T04:49:08;6.00;;;1.97;;
27145;SDS011;17980;51.744;7.190;2022-07-22T04:51:47;7.37;;;2.07;;
27145;SDS011;17980;51.744;7.190;2022-07-22T04:54:15;1.87;;;1.37;;
27145;SDS011;17980;51.744;7.190;2022-07-22T04:56:42;9.60;;;2.40;;
27145;SDS011;17980;51.744;7.190;2022-07-22T04:59:09;6.27;;;2.30;;
27145;SDS011;17980;51.744;7.190;2022-07-22T05:01:37;3.97;;;2.20;;
27145;SDS011;17980;51.744;7.190;2022-07-22T05:04:04;6.53;;;2.20;;
27145;SDS011;17980;51.744;7.190;2022-07-22T05:06:31;7.57;;;2.07;;
27145;SDS011;17980;51.744;7.190;2022-07-22T05:08:59;7.17;;;2.00;;
27145;SDS011;17980;51.744;7.190;2022-07-22T05:11:27;4.27;;;2.00;;
27145;SDS011;17980;51.744;7.190;2022-07-22T05:13:54;9.17;;;2.30;;
27145;SDS011;17980;51.744;7.190;2022-07-22T05:16:21;8.53;;;2.33;;
27145;SDS011;17980;51.744;7.190;2022-07-22T05:18:49;7.23;;;2.10;;
27145;SDS011;17980;51.744;7.190;2022-07-22T05:21:16;6.50;;;2.40;;
27145;SDS011;17980;51.744;7.190;2022-07-22T05:23:44;5.03;;;2.10;;
27145;SDS011;17980;51.744;7.190;2022-07-22T05:26:11;5.67;;;2.53;;
27145;SDS011;17980;51.744;7.190;2022-07-22T05:28:39;4.77;;;1.70;;
27145;SDS011;17980;51.744;7.190;2022-07-22T05:31:06;7.60;;;2.37;;
27145;SDS011;17980;51.744;7.190;2022-07-22T05:33:33;8.83;;;2.20;;
27145;SDS011;17980;51.744;7.190;2022-07-22T05:36:01;6.63;;;2.07;;
27145;SDS011;17980;51.744;7.190;2022-07-22T05:38:32;5.37;;;2.07;;
27145;SDS011;17980;51.744;7.190;2022-07-22T05:40:59;9.70;;;2.00;;
27145;SDS011;17980;51.744;7.190;2022-07-22T05:43:26;8.50;;;2.20;;
27145;SDS011;17980;51.744;7.190;2022-07-22T05:45:54;6.43;;;2.23;;
27145;SDS011;17980;51.744;7.190;2022-07-22T05:48:21;5.83;;;2.37;;
27145;SDS011;17980;51.744;7.190;2022-07-22T05:50:49;7.00;;;1.90;;
27145;SDS011;17980;51.744;7.190;2022-07-22T05:53:16;5.80;;;1.60;;
27145;SDS011;17980;51.744;7.190;2022-07-22T05:55:58;5.93;;;1.70;;
27145;SDS011;17980;51.744;7.190;2022-07-22T05:58:25;6.17;;;1.47;;
27145;SDS011;17980;51.744;7.190;2022-07-22T06:00:53;6.90;;;1.33;;
27145;SDS011;17980;51.744;7.190;2022-07-22T06:03:32;4.03;;;1.30;;
27145;SDS011;17980;51.744;7.190;2022-07-22T06:05:59;6.17;;;1.23;;
27145;SDS011;17980;51.744;7.190;2022-07-22T06:08:27;3.57;;;1.20;;
27145;SDS011;17980;51.744;7.190;2022-07-22T06:10:55;6.97;;;1.20;;
27145;SDS011;17980;51.744;7.190;2022-07-22T06:13:23;5.37;;;1.20;;
27145;SDS011;17980;51.744;7.190;2022-07-22T06:15:50;4.13;;;1.00;;
27145;SDS011;17980;51.744;7.190;2022-07-22T06:18:18;6.57;;;1.40;;
27145;SDS011;17980;51.744;7.190;2022-07-22T06:20:57;4.73;;;1.07;;
27145;SDS011;17980;51.744;7.190;2022-07-22T06:23:24;10.27;;;1.20;;
27145;SDS011;17980;51.744;7.190;2022-07-22T06:26:04;4.70;;;1.10;;
27145;SDS011;17980;51.744;7.190;2022-07-22T06:28:33;7.60;;;0.80;;
27145;SDS011;17980;51.744;7.190;2022-07-22T06:31:00;4.97;;;1.83;;
27145;SDS011;17980;51.744;7.190;2022-07-22T06:33:27;4.93;;;0.73;;
27145;SDS011;17980;51.744;7.190;2022-07-22T06:35:55;6.87;;;1.13;;
27145;SDS011;17980;51.744;7.190;2022-07-22T06:38:38;4.93;;;1.00;;
27145;SDS011;17980;51.744;7.190;2022-07-22T06:41:06;5.43;;;0.90;;
27145;SDS011;17980;51.744;7.190;2022-07-22T06:43:52;3.93;;;0.90;;
27145;SDS011;17980;51.744;7.190;2022-07-22T06:46:19;2.00;;;0.90;;
27145;SDS011;17980;51.744;7.190;2022-07-22T06:48:47;5.83;;;1.20;;
27145;SDS011;17980;51.744;7.190;2022-07-22T06:51:14;7.53;;;1.30;;
27145;SDS011;17980;51.744;7.190;2022-07-22T06:53:42;4.17;;;1.17;;
27145;SDS011;17980;51.744;7.190;2022-07-22T06:56:09;3.67;;;1.07;;
27145;SDS011;17980;51.744;7.190;2022-07-22T06:58:36;2.07;;;1.00;;
27145;SDS011;17980;51.744;7.190;2022-07-22T07:01:04;3.13;;;0.70;;
27145;SDS011;17980;51.744;7.190;2022-07-22T07:03:31;2.90;;;0.67;;
27145;SDS011;17980;51.744;7.190;2022-07-22T07:05:59;5.93;;;0.83;;
27145;SDS011;17980;51.744;7.190;2022-07-22T07:08:30;4.93;;;0.83;;
27145;SDS011;17980;51.744;7.190;2022-07-22T07:10:57;3.80;;;0.90;;
27145;SDS011;17980;51.744;7.190;2022-07-22T07:13:25;2.23;;;0.60;;
27145;SDS011;17980;51.744;7.190;2022-07-22T07:16:04;2.20;;;0.80;;
27145;SDS011;17980;51.744;7.190;2022-07-22T07:18:32;2.90;;;0.80;;
27145;SDS011;17980;51.744;7.190;2022-07-22T07:21:00;4.23;;;0.80;;
27145;SDS011;17980;51.744;7.190;2022-07-22T07:23:29;2.77;;;0.90;;
27145;SDS011;17980;51.744;7.190;2022-07-22T07:25:56;2.63;;;0.60;;
27145;SDS011;17980;51.744;7.190;2022-07-22T07:28:24;1.30;;;0.70;;
27145;SDS011;17980;51.744;7.190;2022-07-22T07:30:55;1.23;;;0.70;;
27145;SDS011;17980;51.744;7.190;2022-07-22T07:33:22;4.37;;;0.50;;
27145;SDS011;17980;51.744;7.190;2022-07-22T07:49:11;2.53;;;0.60;;
27145;SDS011;17980;51.744;7.190;2022-07-22T07:51:39;5.10;;;0.93;;
27145;SDS011;17980;51.744;7.190;2022-07-22T07:54:07;5.03;;;1.00;;
27145;SDS011;17980;51.744;7.190;2022-07-22T07:56:35;3.63;;;0.77;;
27145;SDS011;17980;51.744;7.190;2022-07-22T07:59:04;2.33;;;0.70;;
27145;SDS011;17980;51.744;7.190;2022-07-22T08:01:32;4.00;;;0.80;;
27145;SDS011;17980;51.744;7.190;2022-07-22T08:03:59;3.50;;;0.60;;
27145;SDS011;17980;51.744;7.190;2022-07-22T08:06:38;2.97;;;0.80;;
27145;SDS011;17980;51.744;7.190;2022-07-22T08:09:06;5.30;;;0.97;;
27145;SDS011;17980;51.744;7.190;2022-07-22T08:11:33;2.13;;;0.80;;
27145;SDS011;17980;51.744;7.190;2022-07-22T08:14:01;1.93;;;0.70;;
27145;SDS011;17980;51.744;7.190;2022-07-22T08:16:28;6.63;;;0.90;;
27145;SDS011;17980;51.744;7.190;2022-07-22T08:18:56;4.30;;;1.33;;
27145;SDS011;17980;51.744;7.190;2022-07-22T08:21:23;6.07;;;1.00;;
27145;SDS011;17980;51.744;7.190;2022-07-22T08:23:51;1.73;;;0.80;;
27145;SDS011;17980;51.744;7.190;2022-07-22T08:26:40;2.20;;;0.80;;
27145;SDS011;17980;51.744;7.190;2022-07-22T08:29:07;6.20;;;1.40;;
27145;SDS011;17980;51.744;7.190;2022-07-22T08:31:36;1.30;;;0.70;;
27145;SDS011;17980;51.744;7.190;2022-07-22T08:34:04;4.30;;;1.03;;
27145;SDS011;17980;51.744;7.190;2022-07-22T08:36:50;5.30;;;1.00;;
27145;SDS011;17980;51.744;7.190;2022-07-22T08:39:17;2.40;;;1.00;;
27145;SDS011;17980;51.744;7.190;2022-07-22T08:41:45;5.40;;;1.10;;
27145;SDS011;17980;51.744;7.190;2022-07-22T08:44:13;5.83;;;1.17;;
27145;SDS011;17980;51.744;7.190;2022-07-22T08:46:40;5.73;;;1.07;;
27145;SDS011;17980;51.744;7.190;2022-07-22T08:49:13;5.03;;;0.90;;
27145;SDS011;17980;51.744;7.190;2022-07-22T08:51:40;5.03;;;0.90;;
27145;SDS011;17980;51.744;7.190;2022-07-22T08:54:08;4.50;;;1.43;;
27145;SDS011;17980;51.744;7.190;2022-07-22T08:59:15;1.80;;;0.80;;
27145;SDS011;17980;51.744;7.190;2022-07-22T09:02:00;4.57;;;0.90;;
27145;SDS011;17980;51.744;7.190;2022-07-22T09:04:50;3.67;;;1.27;;
27145;SDS011;17980;51.744;7.190;2022-07-22T09:07:30;3.40;;;1.00;;
27145;SDS011;17980;51.744;7.190;2022-07-22T09:09:59;3.17;;;0.90;;
27145;SDS011;17980;51.744;7.190;2022-07-22T09:12:27;3.90;;;0.90;;
27145;SDS011;17980;51.744;7.190;2022-07-22T09:14:56;5.17;;;1.00;;
27145;SDS011;17980;51.744;7.190;2022-07-22T09:17:41;4.63;;;1.10;;
27145;SDS011;17980;51.744;7.190;2022-07-22T09:20:15;2.17;;;0.80;;
27145;SDS011;17980;51.744;7.190;2022-07-22T09:22:46;4.60;;;1.13;;
27145;SDS011;17980;51.744;7.190;2022-07-22T09:25:29;8.83;;;1.07;;
27145;SDS011;17980;51.744;7.190;2022-07-22T09:28:10;7.37;;;1.00;;
27145;SDS011;17980;51.744;7.190;2022-07-22T09:30:47;4.93;;;0.90;;
27145;SDS011;17980;51.744;7.190;2022-07-22T09:33:17;6.63;;;1.10;;
27145;SDS011;17980;51.744;7.190;2022-07-22T09:35:50;3.23;;;1.23;;
27145;SDS011;17980;51.744;7.190;2022-07-22T09:38:41;5.50;;;1.57;;
27145;SDS011;17980;51.744;7.190;2022-07-22T09:41:09;3.73;;;1.20;;
27145;SDS011;17980;51.744;7.190;2022-07-22T09:43:37;6.43;;;1.00;;
27145;SDS011;17980;51.744;7.190;2022-07-22T09:59:40;5.37;;;1.10;;
27145;SDS011;17980;51.744;7.190;2022-07-22T10:02:08;5.73;;;1.47;;
27145;SDS011;17980;51.744;7.190;2022-07-22T10:29:21;3.17;;;1.37;;
27145;SDS011;17980;51.744;7.190;2022-07-22T10:31:54;4.97;;;1.10;;
27145;SDS011;17980;51.744;7.190;2022-07-22T10:34:39;3.90;;;1.27;;
27145;SDS011;17980;51.744;7.190;2022-07-22T10:37:20;5.83;;;1.20;;
27145;SDS011;17980;51.744;7.190;2022-07-22T10:40:23;2.50;;;1.40;;
27145;SDS011;17980;51.744;7.190;2022-07-22T10:43:04;3.40;;;1.27;;
27145;SDS011;17980;51.744;7.190;2022-07-22T10:45:34;3.53;;;1.20;;
27145;SDS011;17980;51.744;7.190;2022-07-22T10:48:16;7.50;;;1.30;;
27145;SDS011;17980;51.744;7.190;2022-07-22T10:50:47;5.13;;;1.20;;
27145;SDS011;17980;51.744;7.190;2022-07-22T10:53:16;4.90;;;1.30;;
27145;SDS011;17980;51.744;7.190;2022-07-22T10:59:01;4.03;;;1.37;;
27145;SDS011;17980;51.744;7.190;2022-07-22T11:01:36;3.87;;;1.23;;
27145;SDS011;17980;51.744;7.190;2022-07-22T11:04:09;6.87;;;1.37;;
27145;SDS011;17980;51.744;7.190;2022-07-22T11:06:41;7.97;;;0.93;;
27145;SDS011;17980;51.744;7.190;2022-07-22T11:09:10;7.63;;;1.13;;
27145;SDS011;17980;51.744;7.190;2022-07-22T11:11:41;3.90;;;1.10;;
27145;SDS011;17980;51.744;7.190;2022-07-22T11:14:13;4.87;;;1.30;;
27145;SDS011;17980;51.744;7.190;2022-07-22T11:16:43;3.07;;;1.40;;
27145;SDS011;17980;51.744;7.190;2022-07-22T11:19:12;3.00;;;1.40;;
27145;SDS011;17980;51.744;7.190;2022-07-22T11:21:40;3.23;;;1.13;;
27145;SDS011;17980;51.744;7.190;2022-07-22T11:24:08;5.33;;;1.90;;
27145;SDS011;17980;51.744;7.190;2022-07-22T11:26:39;3.83;;;1.50;;
27145;SDS011;17980;51.744;7.190;2022-07-22T11:29:10;6.10;;;1.77;;
27145;SDS011;17980;51.744;7.190;2022-07-22T11:31:39;3.60;;;1.50;;
27145;SDS011;17980;51.744;7.190;2022-07-22T11:34:07;4.67;;;1.43;;
27145;SDS011;17980;51.744;7.190;2022-07-22T11:36:47;3.13;;;1.30;;
27145;SDS011;17980;51.744;7.190;2022-07-22T11:39:18;3.10;;;1.50;;
27145;SDS011;17980;51.744;7.190;2022-07-22T11:41:48;4.40;;;1.37;;
27145;SDS011;17980;51.744;7.190;2022-07-22T11:44:17;3.97;;;1.63;;
27145;SDS011;17980;51.744;7.190;2022-07-22T11:46:45;3.93;;;1.53;;
27145;SDS011;17980;51.744;7.190;2022-07-22T11:49:28;5.00;;;1.20;;
27145;SDS011;17980;51.744;7.190;2022-07-22T11:51:58;3.90;;;1.23;;
27145;SDS011;17980;51.744;7.190;2022-07-22T11:57:05;4.57;;;1.87;;
27145;SDS011;17980;51.744;7.190;2022-07-22T11:59:33;4.40;;;1.43;;
27145;SDS011;17980;51.744;7.190;2022-07-22T12:02:02;3.93;;;1.30;;
27145;SDS011;17980;51.744;7.190;2022-07-22T12:04:32;3.53;;;1.20;;
27145;SDS011;17980;51.744;7.190;2022-07-22T12:07:00;5.17;;;1.13;;
27145;SDS011;17980;51.744;7.190;2022-07-22T12:09:30;3.03;;;1.57;;
27145;SDS011;17980;51.744;7.190;2022-07-22T12:12:16;6.30;;;1.20;;
27145;SDS011;17980;51.744;7.190;2022-07-22T12:14:45;2.07;;;1.30;;
27145;SDS011;17980;51.744;7.190;2022-07-22T12:17:13;2.17;;;1.20;;
27145;SDS011;17980;51.744;7.190;2022-07-22T12:19:41;1.73;;;1.10;;
27145;SDS011;17980;51.744;7.190;2022-07-22T12:22:09;5.03;;;1.10;;
27145;SDS011;17980;51.744;7.190;2022-07-22T12:24:40;3.53;;;1.40;;
27145;SDS011;17980;51.744;7.190;2022-07-22T12:27:09;4.27;;;1.30;;
27145;SDS011;17980;51.744;7.190;2022-07-22T12:29:52;2.53;;;1.20;;
27145;SDS011;17980;51.744;7.190;2022-07-22T12:32:24;3.60;;;1.23;;
27145;SDS011;17980;51.744;7.190;2022-07-22T12:34:56;3.97;;;1.50;;
27145;SDS011;17980;51.744;7.190;2022-07-22T12:37:25;4.23;;;1.10;;
27145;SDS011;17980;51.744;7.190;2022-07-22T12:39:58;3.90;;;1.27;;
27145;SDS011;17980;51.744;7.190;2022-07-22T12:42:29;2.80;;;1.07;;
27145;SDS011;17980;51.744;7.190;2022-07-22T12:45:02;3.73;;;1.17;;
27145;SDS011;17980;51.744;7.190;2022-07-22T12:47:47;1.20;;;0.90;;
27145;SDS011;17980;51.744;7.190;2022-07-22T12:50:22;3.83;;;1.00;;
27145;SDS011;17980;51.744;7.190;2022-07-22T12:52:52;3.67;;;1.33;;
27145;SDS011;17980;51.744;7.190;2022-07-22T12:55:21;3.67;;;1.23;;
27145;SDS011;17980;51.744;7.190;2022-07-22T13:03:59;2.57;;;1.00;;
27145;SDS011;17980;51.744;7.190;2022-07-22T13:06:28;1.97;;;0.90;;
27145;SDS011;17980;51.744;7.190;2022-07-22T13:08:56;3.87;;;1.00;;
27145;SDS011;17980;51.744;7.190;2022-07-22T13:11:23;4.20;;;1.43;;
27145;SDS011;17980;51.744;7.190;2022-07-22T13:13:51;2.70;;;1.60;;
27145;SDS011;17980;51.744;7.190;2022-07-22T13:16:20;2.27;;;1.00;;
27145;SDS011;17980;51.744;7.190;2022-07-22T13:18:48;2.40;;;1.00;;
27145;SDS011;17980;51.744;7.190;2022-07-22T13:21:16;2.50;;;1.10;;
27145;SDS011;17980;51.744;7.190;2022-07-22T13:23:44;1.40;;;0.87;;
27145;SDS011;17980;51.744;7.190;2022-07-22T13:26:12;1.80;;;1.30;;
27145;SDS011;17980;51.744;7.190;2022-07-22T13:28:56;1.13;;;1.00;;
27145;SDS011;17980;51.744;7.190;2022-07-22T13:31:24;1.47;;;1.00;;
27145;SDS011;17980;51.744;7.190;2022-07-22T13:33:56;3.97;;;1.30;;
27145;SDS011;17980;51.744;7.190;2022-07-22T13:36:24;2.43;;;1.10;;
27145;SDS011;17980;51.744;7.190;2022-07-22T13:39:07;3.73;;;1.33;;
27145;SDS011;17980;51.744;7.190;2022-07-22T13:41:35;1.73;;;1.20;;
27145;SDS011;17980;51.744;7.190;2022-07-22T13:44:03;3.40;;;1.17;;
27145;SDS011;17980;51.744;7.190;2022-07-22T13:46:34;2.87;;;1.20;;
27145;SDS011;17980;51.744;7.190;2022-07-22T13:49:01;3.17;;;1.30;;
27145;SDS011;17980;51.744;7.190;2022-07-22T13:51:29;4.87;;;1.00;;
27145;SDS011;17980;51.744;7.190;2022-07-22T13:53:58;2.90;;;1.27;;
27145;SDS011;17980;51.744;7.190;2022-07-22T13:56:25;2.43;;;0.90;;
27145;SDS011;17980;51.744;7.190;2022-07-22T13:58:53;2.80;;;1.30;;
27145;SDS011;17980;51.744;7.190;2022-07-22T14:01:20;2.53;;;1.27;;
27145;SDS011;17980;51.744;7.190;2022-07-22T14:03:59;3.10;;;1.30;;
27145;SDS011;17980;51.744;7.190;2022-07-22T14:06:28;2.97;;;1.00;;
27145;SDS011;17980;51.744;7.190;2022-07-22T14:08:55;2.80;;;1.30;;
27145;SDS011;17980;51.744;7.190;2022-07-22T14:11:23;5.23;;;1.17;;
27145;SDS011;17980;51.744;7.190;2022-07-22T14:14:13;2.07;;;1.20;;
27145;SDS011;17980;51.744;7.190;2022-07-22T14:16:41;3.20;;;1.30;;
27145;SDS011;17980;51.744;7.190;2022-07-22T14:19:09;7.43;;;1.17;;
27145;SDS011;17980;51.744;7.190;2022-07-22T14:21:39;8.97;;;1.03;;
27145;SDS011;17980;51.744;7.190;2022-07-22T14:24:08;1.53;;;0.80;;
27145;SDS011;17980;51.744;7.190;2022-07-22T14:26:36;3.30;;;1.43;;
27145;SDS011;17980;51.744;7.190;2022-07-22T14:29:16;3.07;;;1.03;;
27145;SDS011;17980;51.744;7.190;2022-07-22T14:31:44;4.10;;;1.20;;
27145;SDS011;17980;51.744;7.190;2022-07-22T14:34:12;3.37;;;1.10;;
27145;SDS011;17980;51.744;7.190;2022-07-22T14:36:39;5.33;;;1.20;;
27145;SDS011;17980;51.744;7.190;2022-07-22T14:39:07;5.07;;;1.40;;
27145;SDS011;17980;51.744;7.190;2022-07-22T14:41:34;4.67;;;1.63;;
27145;SDS011;17980;51.744;7.190;2022-07-22T14:44:02;2.33;;;1.10;;
27145;SDS011;17980;51.744;7.190;2022-07-22T14:46:29;2.90;;;1.07;;
27145;SDS011;17980;51.744;7.190;2022-07-22T14:49:12;2.43;;;1.00;;
27145;SDS011;17980;51.744;7.190;2022-07-22T14:51:41;1.00;;;0.90;;
27145;SDS011;17980;51.744;7.190;2022-07-22T14:54:09;3.27;;;1.00;;
27145;SDS011;17980;51.744;7.190;2022-07-22T14:56:37;4.60;;;1.13;;
27145;SDS011;17980;51.744;7.190;2022-07-22T14:59:18;1.60;;;0.80;;
27145;SDS011;17980;51.744;7.190;2022-07-22T15:01:49;1.83;;;0.90;;
27145;SDS011;17980;51.744;7.190;2022-07-22T15:04:17;2.53;;;0.97;;
27145;SDS011;17980;51.744;7.190;2022-07-22T15:06:59;1.70;;;0.90;;
27145;SDS011;17980;51.744;7.190;2022-07-22T15:09:28;3.20;;;1.00;;
27145;SDS011;17980;51.744;7.190;2022-07-22T15:11:55;3.60;;;1.40;;
27145;SDS011;17980;51.744;7.190;2022-07-22T15:14:23;2.23;;;1.00;;
27145;SDS011;17980;51.744;7.190;2022-07-22T15:16:53;4.27;;;1.23;;
27145;SDS011;17980;51.744;7.190;2022-07-22T15:32:34;3.00;;;0.97;;
27145;SDS011;17980;51.744;7.190;2022-07-22T15:35:02;5.20;;;1.57;;
27145;SDS011;17980;51.744;7.190;2022-07-22T15:37:31;2.50;;;1.10;;
27145;SDS011;17980;51.744;7.190;2022-07-22T15:39:59;2.67;;;1.10;;
27145;SDS011;17980;51.744;7.190;2022-07-22T15:42:27;3.57;;;1.13;;
27145;SDS011;17980;51.744;7.190;2022-07-22T15:44:56;5.33;;;1.20;;
27145;SDS011;17980;51.744;7.190;2022-07-22T15:47:23;1.93;;;1.00;;
27145;SDS011;17980;51.744;7.190;2022-07-22T15:49:50;4.63;;;1.30;;
27145;SDS011;17980;51.744;7.190;2022-07-22T15:52:18;7.20;;;1.10;;
27145;SDS011;17980;51.744;7.190;2022-07-22T15:55:01;1.37;;;1.17;;
27145;SDS011;17980;51.744;7.190;2022-07-22T15:57:29;4.77;;;1.80;;
27145;SDS011;17980;51.744;7.190;2022-07-22T16:00:15;6.17;;;1.20;;
27145;SDS011;17980;51.744;7.190;2022-07-22T16:02:44;2.83;;;1.30;;
27145;SDS011;17980;51.744;7.190;2022-07-22T16:05:24;3.27;;;1.00;;
27145;SDS011;17980;51.744;7.190;2022-07-22T16:07:51;1.53;;;1.03;;
27145;SDS011;17980;51.744;7.190;2022-07-22T16:10:20;4.03;;;1.10;;
27145;SDS011;17980;51.744;7.190;2022-07-22T16:12:48;3.50;;;1.33;;
27145;SDS011;17980;51.744;7.190;2022-07-22T16:15:29;1.97;;;1.00;;
27145;SDS011;17980;51.744;7.190;2022-07-22T16:17:57;3.67;;;1.00;;
27145;SDS011;17980;51.744;7.190;2022-07-22T16:20:26;3.57;;;0.90;;
27145;SDS011;17980;51.744;7.190;2022-07-22T16:22:54;3.67;;;1.27;;
27145;SDS011;17980;51.744;7.190;2022-07-22T16:25:22;4.17;;;1.43;;
27145;SDS011;17980;51.744;7.190;2022-07-22T16:27:49;3.97;;;1.00;;
27145;SDS011;17980;51.744;7.190;2022-07-22T16:30:17;8.47;;;1.30;;
27145;SDS011;17980;51.744;7.190;2022-07-22T16:32:47;2.80;;;1.50;;
27145;SDS011;17980;51.744;7.190;2022-07-22T16:35:14;2.73;;;1.20;;
27145;SDS011;17980;51.744;7.190;2022-07-22T16:37:42;3.03;;;1.20;;
27145;SDS011;17980;51.744;7.190;2022-07-22T16:40:10;4.47;;;1.37;;
27145;SDS011;17980;51.744;7.190;2022-07-22T16:42:43;4.00;;;1.50;;
27145;SDS011;17980;51.744;7.190;2022-07-22T16:45:10;3.43;;;1.60;;
27145;SDS011;17980;51.744;7.190;2022-07-22T16:47:38;6.03;;;2.17;;
27145;SDS011;17980;51.744;7.190;2022-07-22T16:50:08;6.57;;;1.20;;
27145;SDS011;17980;51.744;7.190;2022-07-22T16:52:40;2.67;;;1.10;;
27145;SDS011;17980;51.744;7.190;2022-07-22T16:55:09;3.93;;;1.30;;
27145;SDS011;17980;51.744;7.190;2022-07-22T16:57:37;7.23;;;1.63;;
27145;SDS011;17980;51.744;7.190;2022-07-22T17:00:07;9.07;;;1.43;;
27145;SDS011;17980;51.744;7.190;2022-07-22T17:02:38;6.10;;;1.53;;
27145;SDS011;17980;51.744;7.190;2022-07-22T17:05:09;3.87;;;1.97;;
27145;SDS011;17980;51.744;7.190;2022-07-22T17:07:37;3.07;;;1.00;;
27145;SDS011;17980;51.744;7.190;2022-07-22T17:10:06;5.70;;;1.07;;
27145;SDS011;17980;51.744;7.190;2022-07-22T17:12:48;4.67;;;1.53;;
27145;SDS011;17980;51.744;7.190;2022-07-22T17:15:17;4.30;;;1.07;;
27145;SDS011;17980;51.744;7.190;2022-07-22T17:17:47;3.47;;;0.97;;
27145;SDS011;17980;51.744;7.190;2022-07-22T17:20:15;1.97;;;1.10;;
27145;SDS011;17980;51.744;7.190;2022-07-22T17:22:42;3.27;;;1.50;;
27145;SDS011;17980;51.744;7.190;2022-07-22T17:28:29;2.90;;;1.10;;
27145;SDS011;17980;51.744;7.190;2022-07-22T17:31:00;4.20;;;1.20;;
27145;SDS011;17980;51.744;7.190;2022-07-22T17:33:29;2.77;;;1.00;;
27145;SDS011;17980;51.744;7.190;2022-07-22T17:35:57;1.93;;;1.00;;
27145;SDS011;17980;51.744;7.190;2022-07-22T17:38:38;3.73;;;1.30;;
27145;SDS011;17980;51.744;7.190;2022-07-22T17:41:06;4.07;;;1.00;;
27145;SDS011;17980;51.744;7.190;2022-07-22T17:43:48;2.90;;;1.47;;
27145;SDS011;17980;51.744;7.190;2022-07-22T17:46:15;3.70;;;1.30;;
27145;SDS011;17980;51.744;7.190;2022-07-22T17:48:43;4.73;;;1.37;;
27145;SDS011;17980;51.744;7.190;2022-07-22T17:51:10;5.73;;;0.97;;
27145;SDS011;17980;51.744;7.190;2022-07-22T17:53:38;2.73;;;1.23;;
27145;SDS011;17980;51.744;7.190;2022-07-22T17:56:06;3.50;;;1.10;;
27145;SDS011;17980;51.744;7.190;2022-07-22T17:58:34;5.63;;;1.43;;
27145;SDS011;17980;51.744;7.190;2022-07-22T18:01:01;5.70;;;1.30;;
27145;SDS011;17980;51.744;7.190;2022-07-22T18:03:31;1.20;;;1.10;;
27145;SDS011;17980;51.744;7.190;2022-07-22T18:05:58;3.37;;;1.20;;
27145;SDS011;17980;51.744;7.190;2022-07-22T18:08:26;5.80;;;1.60;;
27145;SDS011;17980;51.744;7.190;2022-07-22T18:11:11;4.37;;;1.30;;
27145;SDS011;17980;51.744;7.190;2022-07-22T18:13:39;3.77;;;1.17;;